KELN

Bowers Field Airport

Ellensburg, Washington, USA
METAR KELN 170153Z AUTO 30006KT 10SM CLR 02/M02 A3020 RMK AO2 SLP242 T00171022
Observed Flight Rules
Dec-17 @ 01:53 UTC (21 minutes ago) Visual Flight Rules
Wind Visibility Clouds
300° at 6 knots 10 miles
  • Clear skies
Temperatures Readings
Current 2°C / 36°F
Dewpoint -2°C / 28°F
Humidity 75%
Altimeter 30.2" Hg
Pressure 1024.2 hPa
Elevation 519
METAR KELN 170153Z AUTO 30006KT 10SM CLR 02/M02 A3020 RMK AO2 SLP242 T00171022
Observed Flight Rules
Dec-17 @ 01:53 UTC
(21 minutes ago)
VFR
Wind Visibility
300° at 6 knots 10 miles
Clouds
  • Clear skies
Temperature Dewpoint
2°C / 36°F -2°C / 28°F
Humidity Altimeter Pressure
75% 30.2" Hg 1024.2 hPa